createdAt,value
2018-05-31T00:01:38.776Z,12.63
2018-05-31T00:04:06.462Z,12.27
2018-05-31T00:06:34.147Z,12.73
2018-05-31T00:09:01.869Z,12.70
2018-05-31T00:14:20.208Z,11.23
2018-05-31T00:16:47.825Z,12.13
2018-05-31T00:19:15.475Z,11.07
2018-05-31T00:21:43.188Z,11.70
2018-05-31T00:24:11.126Z,11.73
2018-05-31T00:26:39.590Z,13.27
2018-05-31T00:29:07.213Z,11.90
2018-05-31T00:31:34.835Z,12.23
2018-05-31T00:34:02.480Z,13.10
2018-05-31T00:36:30.436Z,12.80
2018-05-31T00:38:58.093Z,12.27
2018-05-31T00:41:25.727Z,12.23
2018-05-31T00:43:53.347Z,12.93
2018-05-31T00:46:21.076Z,13.20
2018-05-31T00:48:48.727Z,13.93
2018-05-31T00:51:16.738Z,12.57
2018-05-31T00:53:44.286Z,12.77
2018-05-31T00:56:18.775Z,11.97
2018-05-31T00:58:46.297Z,12.93
2018-05-31T01:01:13.864Z,13.50
2018-05-31T01:03:41.428Z,12.00
2018-05-31T01:06:08.961Z,13.60
2018-05-31T01:08:36.513Z,13.97
2018-05-31T01:11:04.131Z,12.77
2018-05-31T01:13:31.757Z,12.00
2018-05-31T01:15:59.291Z,12.37
2018-05-31T01:18:27.027Z,11.77
2018-05-31T01:20:54.568Z,12.50
2018-05-31T01:23:23.196Z,13.17
2018-05-31T01:25:50.860Z,11.07
2018-05-31T01:28:18.483Z,11.63
2018-05-31T01:30:46.289Z,13.40
2018-05-31T01:33:15.230Z,13.50
2018-05-31T01:35:42.789Z,13.10
2018-05-31T01:38:22.100Z,12.63
2018-05-31T01:40:49.639Z,13.10
2018-05-31T01:43:17.168Z,12.77
2018-05-31T01:45:44.914Z,13.40
2018-05-31T01:48:12.619Z,13.70
2018-05-31T01:50:40.281Z,14.40
2018-05-31T01:53:08.021Z,16.73
2018-05-31T01:55:35.689Z,15.77
2018-05-31T01:58:03.317Z,16.87
2018-05-31T02:03:22.325Z,16.90
2018-05-31T02:05:49.975Z,18.23
2018-05-31T02:08:17.798Z,18.47
2018-05-31T02:13:36.447Z,16.77
2018-05-31T02:16:04.087Z,15.90
2018-05-31T02:18:31.658Z,16.90
2018-05-31T02:20:59.197Z,18.63
2018-05-31T02:23:26.813Z,18.17
2018-05-31T02:25:54.451Z,16.10
2018-05-31T02:28:22.242Z,15.20
2018-05-31T02:30:49.801Z,14.67
2018-05-31T02:33:17.359Z,12.60
2018-05-31T02:35:45.104Z,14.10
2018-05-31T02:38:12.760Z,13.60
2018-05-31T02:41:01.141Z,14.03
2018-05-31T02:43:28.690Z,13.67
2018-05-31T02:45:56.211Z,14.27
2018-05-31T02:48:23.872Z,12.07
2018-05-31T02:50:51.461Z,13.90
2018-05-31T02:53:18.997Z,13.57
2018-05-31T02:55:46.516Z,14.43
2018-05-31T02:58:14.065Z,14.40
2018-05-31T03:00:41.593Z,13.93
2018-05-31T03:03:09.149Z,14.20
2018-05-31T03:05:36.748Z,14.30
2018-05-31T03:08:04.336Z,13.33
2018-05-31T03:10:31.894Z,13.70
2018-05-31T03:12:59.492Z,13.20
2018-05-31T03:15:27.094Z,13.50
2018-05-31T03:17:54.690Z,13.00
2018-05-31T03:20:22.251Z,13.27
2018-05-31T03:22:49.781Z,13.37
2018-05-31T03:25:17.630Z,13.90
2018-05-31T03:27:45.188Z,13.97
2018-05-31T03:30:12.820Z,13.17
2018-05-31T03:35:14.378Z,13.60
2018-05-31T03:37:42.039Z,12.83
2018-05-31T03:40:10.593Z,12.30
2018-05-31T03:42:38.283Z,14.53
2018-05-31T03:45:14.155Z,11.77
2018-05-31T03:47:41.844Z,14.40
2018-05-31T03:52:41.121Z,13.70
2018-05-31T03:55:08.674Z,13.50
2018-05-31T03:57:36.288Z,13.87
2018-05-31T04:00:03.970Z,13.67
2018-05-31T04:02:31.671Z,14.83
2018-05-31T04:04:59.260Z,14.57
2018-05-31T04:07:26.911Z,13.13
2018-05-31T04:09:54.527Z,12.23
2018-05-31T04:12:22.160Z,14.20
2018-05-31T04:14:49.705Z,13.00
2018-05-31T04:17:17.298Z,13.20
2018-05-31T04:19:44.825Z,13.53
2018-05-31T04:22:12.331Z,13.50
2018-05-31T04:24:39.849Z,14.10
2018-05-31T04:27:07.377Z,15.60
2018-05-31T04:29:34.943Z,14.03
2018-05-31T04:32:02.473Z,15.10
2018-05-31T04:34:29.969Z,13.90
2018-05-31T04:36:57.548Z,14.60
2018-05-31T04:39:25.193Z,16.60
2018-05-31T04:41:52.662Z,18.17
2018-05-31T04:44:20.176Z,16.00
2018-05-31T04:46:47.679Z,15.90
2018-05-31T04:49:15.195Z,16.97
2018-05-31T04:51:42.737Z,15.63
2018-05-31T04:54:10.361Z,15.10
2018-05-31T04:56:37.877Z,15.10
2018-05-31T04:59:05.490Z,14.47
2018-05-31T05:01:33.049Z,14.50
2018-05-31T05:04:00.769Z,13.87
2018-05-31T05:06:28.302Z,14.27
2018-05-31T05:08:55.851Z,15.03
2018-05-31T05:11:23.416Z,15.50
2018-05-31T05:13:51.016Z,13.30
2018-05-31T05:16:18.553Z,13.10
2018-05-31T05:18:46.191Z,14.77
2018-05-31T05:21:13.929Z,14.80
2018-05-31T05:23:41.686Z,13.57
2018-05-31T05:26:09.271Z,14.90
2018-05-31T05:28:36.892Z,15.33
2018-05-31T05:31:04.472Z,15.97
2018-05-31T05:33:32.024Z,17.40
2018-05-31T05:36:01.334Z,19.43
2018-05-31T05:38:28.869Z,19.40
2018-05-31T05:40:56.429Z,20.10
2018-05-31T05:43:24.536Z,18.67
2018-05-31T05:45:52.179Z,18.63
2018-05-31T05:48:19.859Z,18.67
2018-05-31T05:50:47.569Z,18.50
2018-05-31T05:53:15.198Z,17.70
2018-05-31T05:55:42.806Z,16.20
2018-05-31T05:58:10.373Z,16.77
2018-05-31T06:00:37.921Z,18.00
2018-05-31T06:03:05.503Z,18.90
2018-05-31T06:05:33.139Z,16.43
2018-05-31T06:08:00.740Z,18.03
2018-05-31T06:10:28.366Z,18.87
2018-05-31T06:12:56.018Z,16.57
2018-05-31T06:15:23.568Z,18.70
2018-05-31T06:17:51.245Z,16.80
2018-05-31T06:20:18.866Z,17.63
2018-05-31T06:22:46.657Z,17.63
2018-05-31T06:25:15.298Z,15.80
2018-05-31T06:27:42.921Z,15.40
2018-05-31T06:30:13.508Z,15.50
2018-05-31T06:32:41.238Z,16.27
2018-05-31T06:35:08.940Z,14.70
2018-05-31T06:37:36.736Z,17.33
2018-05-31T06:40:04.351Z,16.80
2018-05-31T06:42:32.073Z,16.77
2018-05-31T06:44:59.732Z,15.73
2018-05-31T06:47:27.402Z,16.50
2018-05-31T06:49:55.171Z,15.40
2018-05-31T06:52:22.824Z,15.63
2018-05-31T06:54:51.575Z,14.70
2018-05-31T06:57:19.377Z,13.57
2018-05-31T06:59:47.075Z,11.23
2018-05-31T07:02:15.261Z,11.83
2018-05-31T07:04:43.730Z,11.77
2018-05-31T07:07:11.927Z,11.97
2018-05-31T07:09:39.849Z,12.07
2018-05-31T07:12:07.539Z,11.33
2018-05-31T07:14:35.216Z,11.53
2018-05-31T07:17:02.824Z,11.83
2018-05-31T07:19:30.551Z,11.33
2018-05-31T07:21:58.200Z,11.00
2018-05-31T07:24:25.822Z,12.37
2018-05-31T07:26:53.427Z,12.40
2018-05-31T07:29:21.031Z,12.03
2018-05-31T07:31:48.682Z,12.10
2018-05-31T07:36:52.118Z,11.97
2018-05-31T07:39:19.914Z,10.20
2018-05-31T07:41:48.196Z,11.17
2018-05-31T07:44:15.906Z,10.60
2018-05-31T07:46:43.586Z,12.73
2018-05-31T07:49:12.946Z,11.90
2018-05-31T07:51:41.955Z,10.43
2018-05-31T07:54:09.590Z,10.83
2018-05-31T07:56:38.038Z,11.80
2018-05-31T07:59:05.886Z,12.07
2018-05-31T08:01:33.652Z,10.47
2018-05-31T08:04:02.485Z,11.00
2018-05-31T08:06:30.211Z,11.70
2018-05-31T08:08:58.591Z,11.77
2018-05-31T08:11:26.261Z,11.20
2018-05-31T08:13:53.934Z,10.77
2018-05-31T08:16:21.615Z,12.00
2018-05-31T08:18:49.215Z,11.10
2018-05-31T08:21:17.977Z,11.23
2018-05-31T08:23:47.646Z,11.30
2018-05-31T08:26:16.226Z,11.73
2018-05-31T08:28:44.015Z,10.60
2018-05-31T08:31:13.857Z,10.40
2018-05-31T08:33:42.925Z,11.30
2018-05-31T08:36:11.017Z,11.00
2018-05-31T08:38:39.589Z,11.00
2018-05-31T08:41:11.294Z,11.47
2018-05-31T08:43:41.964Z,9.30
2018-05-31T08:46:09.641Z,12.23
2018-05-31T08:48:38.400Z,9.90
2018-05-31T08:51:10.487Z,11.13
2018-05-31T08:53:43.150Z,10.30
2018-05-31T08:56:11.117Z,11.80
2018-05-31T08:58:40.876Z,9.70
2018-05-31T09:01:19.267Z,11.47
2018-05-31T09:03:57.162Z,9.50
2018-05-31T09:06:46.619Z,10.43
2018-05-31T09:12:02.008Z,10.07
2018-05-31T09:17:35.217Z,10.60
2018-05-31T09:20:15.876Z,11.10
2018-05-31T09:22:50.000Z,11.30
2018-05-31T09:25:19.448Z,10.93
2018-05-31T09:27:52.897Z,10.40
2018-05-31T09:30:28.076Z,11.63
2018-05-31T09:33:06.516Z,10.77
2018-05-31T09:35:39.674Z,11.17
2018-05-31T09:38:11.277Z,12.20
2018-05-31T09:40:49.458Z,11.13
2018-05-31T09:43:22.219Z,11.83
2018-05-31T09:45:55.724Z,11.53
2018-05-31T09:48:30.210Z,11.17
2018-05-31T09:51:03.506Z,10.20
2018-05-31T09:53:35.330Z,10.57
2018-05-31T09:56:03.693Z,11.43
2018-05-31T09:58:39.404Z,11.63
2018-05-31T10:01:15.981Z,11.40
2018-05-31T10:03:52.703Z,10.13
2018-05-31T10:06:23.456Z,10.47
2018-05-31T10:08:59.926Z,10.97
2018-05-31T10:11:37.484Z,11.03
2018-05-31T10:14:13.496Z,11.03
2018-05-31T10:16:53.243Z,10.53
2018-05-31T10:22:07.953Z,11.50
2018-05-31T10:24:43.749Z,10.60
2018-05-31T10:27:25.231Z,10.97
2018-05-31T10:29:57.074Z,10.43
2018-05-31T10:32:30.278Z,10.83
2018-05-31T10:35:09.107Z,9.30
2018-05-31T10:37:46.140Z,10.27
2018-05-31T10:40:23.136Z,10.20
2018-05-31T10:42:55.734Z,10.53
2018-05-31T10:45:41.472Z,11.90
2018-05-31T10:48:14.903Z,11.67
2018-05-31T10:50:47.568Z,11.17
2018-05-31T10:53:21.987Z,10.97
2018-05-31T10:55:58.755Z,10.87
2018-05-31T10:58:27.990Z,10.63
2018-05-31T11:01:10.263Z,10.47
2018-05-31T11:03:49.981Z,10.00
2018-05-31T11:06:25.749Z,10.90
2018-05-31T11:14:43.856Z,9.93
2018-05-31T11:17:23.746Z,9.97
2018-05-31T11:20:04.138Z,10.17
2018-05-31T11:26:12.719Z,10.20
2018-05-31T11:34:54.287Z,9.43
2018-05-31T11:38:10.219Z,9.80
2018-05-31T11:46:55.201Z,9.90
2018-05-31T11:55:20.139Z,8.93
2018-05-31T12:22:48.586Z,10.20
2018-05-31T12:30:58.807Z,10.00
2018-05-31T12:33:31.697Z,9.27
2018-05-31T12:36:30.112Z,9.97
2018-05-31T12:39:16.674Z,9.40
2018-05-31T12:48:52.392Z,9.07
2018-05-31T12:51:30.250Z,9.60
2018-05-31T12:56:53.630Z,9.07
2018-05-31T13:02:13.264Z,7.80
2018-05-31T13:04:45.936Z,8.10
2018-05-31T13:07:37.971Z,8.43
2018-05-31T13:10:14.399Z,8.90
2018-05-31T13:12:43.983Z,9.50
2018-05-31T13:15:14.647Z,8.20
2018-05-31T13:20:39.688Z,7.60
2018-05-31T13:23:15.356Z,7.47
2018-05-31T13:31:28.208Z,8.80
2018-05-31T13:34:04.635Z,8.50
2018-05-31T13:36:45.722Z,7.37
2018-05-31T13:42:56.722Z,8.47
2018-05-31T13:57:40.217Z,9.30
2018-05-31T14:17:39.316Z,8.53
2018-05-31T14:20:15.897Z,9.50
2018-05-31T14:22:47.708Z,9.80
2018-05-31T14:28:34.315Z,8.30
2018-05-31T14:31:38.744Z,7.70
2018-05-31T14:34:06.409Z,8.00
2018-05-31T14:36:38.227Z,7.73
2018-05-31T14:39:11.507Z,8.20
2018-05-31T14:41:53.942Z,7.80
2018-05-31T14:44:29.126Z,8.90
2018-05-31T14:46:57.008Z,7.90
2018-05-31T14:49:28.024Z,8.60
2018-05-31T14:51:58.068Z,7.97
2018-05-31T14:57:00.408Z,8.40
2018-05-31T14:59:29.867Z,7.30
2018-05-31T15:02:00.910Z,8.50
2018-05-31T15:04:33.696Z,7.60
2018-05-31T15:07:08.798Z,8.40
2018-05-31T15:09:41.001Z,7.83
2018-05-31T15:15:56.492Z,7.90
2018-05-31T15:18:38.322Z,8.43
2018-05-31T15:21:07.211Z,8.63
2018-05-31T15:23:41.459Z,7.97
2018-05-31T15:29:04.732Z,8.10
2018-05-31T15:31:32.728Z,7.57
2018-05-31T15:34:24.481Z,7.70
2018-05-31T15:36:55.852Z,8.03
2018-05-31T15:39:24.913Z,8.43
2018-05-31T15:42:04.620Z,9.00
2018-05-31T15:44:43.761Z,8.50
2018-05-31T15:47:17.404Z,7.27
2018-05-31T15:49:46.799Z,8.70
2018-05-31T15:52:25.095Z,7.43
2018-05-31T15:54:58.118Z,7.93
2018-05-31T15:57:25.885Z,7.53
2018-05-31T15:59:55.891Z,9.07
2018-05-31T16:02:24.406Z,9.57
2018-05-31T16:04:53.640Z,8.90
2018-05-31T16:07:21.588Z,9.43
2018-05-31T16:09:49.917Z,9.50
2018-05-31T16:12:18.659Z,10.20
2018-05-31T16:14:46.356Z,9.63
2018-05-31T16:17:16.273Z,8.83
2018-05-31T16:19:45.892Z,8.53
2018-05-31T16:22:13.579Z,8.77
2018-05-31T16:24:41.265Z,9.33
2018-05-31T16:27:12.542Z,9.40
2018-05-31T16:29:40.712Z,9.20
2018-05-31T16:32:10.031Z,8.87
2018-05-31T16:34:37.992Z,9.33
2018-05-31T16:37:08.948Z,9.63
2018-05-31T16:39:41.490Z,9.80
2018-05-31T16:42:09.976Z,8.63
2018-05-31T16:44:40.220Z,9.50
2018-05-31T16:47:10.288Z,9.70
2018-05-31T16:49:39.083Z,8.63
2018-05-31T16:52:12.075Z,8.90
2018-05-31T16:54:40.817Z,9.77
2018-05-31T16:57:14.369Z,9.80
2018-05-31T16:59:43.176Z,9.07
2018-05-31T17:02:14.060Z,10.07
2018-05-31T17:04:42.822Z,9.67
2018-05-31T17:07:15.404Z,11.37
2018-05-31T17:09:45.100Z,9.00
2018-05-31T17:12:12.951Z,9.83
2018-05-31T17:14:42.580Z,10.03
2018-05-31T17:17:12.589Z,11.30
2018-05-31T17:19:44.708Z,10.80
2018-05-31T17:22:15.667Z,10.03
2018-05-31T17:24:45.280Z,11.57
2018-05-31T17:27:14.018Z,10.83
2018-05-31T17:29:43.220Z,10.30
2018-05-31T17:32:11.986Z,10.00
2018-05-31T17:34:40.770Z,10.30
2018-05-31T17:37:12.171Z,10.73
2018-05-31T17:39:42.120Z,10.40
2018-05-31T17:42:10.734Z,11.53
2018-05-31T17:44:40.231Z,11.23
2018-05-31T17:47:08.888Z,10.37
2018-05-31T17:49:39.014Z,10.00
2018-05-31T17:52:07.447Z,11.70
2018-05-31T17:54:36.047Z,10.70
2018-05-31T17:57:03.756Z,9.93
2018-05-31T17:59:32.314Z,10.80
2018-05-31T18:02:00.067Z,10.83
2018-05-31T18:04:27.891Z,10.13
2018-05-31T18:06:55.812Z,11.00
2018-05-31T18:09:23.529Z,10.40
2018-05-31T18:11:52.092Z,11.53
2018-05-31T18:14:19.832Z,10.70
2018-05-31T18:16:47.700Z,11.43
2018-05-31T18:19:15.439Z,11.10
2018-05-31T18:21:44.534Z,11.10
2018-05-31T18:24:14.801Z,11.20
2018-05-31T18:26:42.906Z,11.70
2018-05-31T18:29:11.701Z,12.53
2018-05-31T18:31:39.741Z,12.17
2018-05-31T18:34:08.446Z,11.90
2018-05-31T18:36:38.596Z,11.70
2018-05-31T18:39:07.116Z,11.83
2018-05-31T18:41:37.459Z,11.53
2018-05-31T18:44:05.267Z,12.00
2018-05-31T18:46:33.066Z,12.07
2018-05-31T18:49:02.365Z,12.80
2018-05-31T18:51:30.276Z,13.10
2018-05-31T18:53:58.247Z,13.13
2018-05-31T18:56:26.093Z,13.13
2018-05-31T18:58:54.863Z,12.40
2018-05-31T19:01:23.473Z,13.10
2018-05-31T19:03:51.210Z,11.30
2018-05-31T19:06:20.083Z,11.93
2018-05-31T19:08:47.823Z,12.37
2018-05-31T19:11:18.521Z,11.47
2018-05-31T19:13:53.453Z,12.50
2018-05-31T19:16:22.894Z,11.80
2018-05-31T19:18:57.754Z,12.13
2018-05-31T19:21:28.362Z,11.77
2018-05-31T19:23:56.256Z,12.93
2018-05-31T19:26:23.989Z,12.13
2018-05-31T19:28:52.565Z,13.17
2018-05-31T19:31:20.214Z,12.83
2018-05-31T19:33:49.333Z,12.90
2018-05-31T19:36:22.458Z,13.30
2018-05-31T19:38:50.056Z,12.87
2018-05-31T19:41:19.242Z,13.27
2018-05-31T19:43:53.174Z,13.30
2018-05-31T19:46:21.725Z,13.57
2018-05-31T19:48:49.462Z,14.80
2018-05-31T19:51:22.739Z,13.27
2018-05-31T19:53:50.510Z,13.20
2018-05-31T19:56:18.822Z,13.97
2018-05-31T19:58:51.917Z,13.83
2018-05-31T20:01:25.281Z,15.60
2018-05-31T20:03:53.125Z,14.47
2018-05-31T20:06:21.740Z,15.07
2018-05-31T20:08:49.468Z,15.43
2018-05-31T20:11:17.099Z,15.00
2018-05-31T20:13:45.555Z,15.60
2018-05-31T20:16:13.154Z,14.47
2018-05-31T20:18:45.490Z,15.40
2018-05-31T20:21:15.865Z,13.37
2018-05-31T20:23:43.548Z,13.53
2018-05-31T20:26:11.240Z,14.73
2018-05-31T20:28:40.430Z,14.77
2018-05-31T20:31:08.255Z,14.83
2018-05-31T20:33:36.967Z,13.37
2018-05-31T20:36:04.713Z,13.13
2018-05-31T20:38:33.973Z,13.83
2018-05-31T20:41:01.691Z,14.53
2018-05-31T20:43:30.265Z,15.13
2018-05-31T20:45:57.958Z,15.17
2018-05-31T20:48:26.111Z,14.00
2018-05-31T20:50:53.827Z,14.00
2018-05-31T20:53:22.440Z,14.00
2018-05-31T20:55:50.168Z,14.30
2018-05-31T20:58:17.871Z,15.73
2018-05-31T21:00:45.569Z,15.23
2018-05-31T21:03:13.511Z,15.33
2018-05-31T21:05:41.191Z,14.43
2018-05-31T21:08:08.907Z,13.57
2018-05-31T21:10:36.622Z,13.27
2018-05-31T21:13:05.096Z,13.87
2018-05-31T21:15:32.820Z,14.87
2018-05-31T21:18:00.550Z,13.77
2018-05-31T21:20:28.276Z,13.60
2018-05-31T21:22:56.637Z,13.43
2018-05-31T21:25:26.034Z,16.03
2018-05-31T21:27:53.700Z,14.23
2018-05-31T21:30:21.367Z,13.40
2018-05-31T21:32:49.071Z,17.50
2018-05-31T21:35:17.092Z,15.53
2018-05-31T21:37:44.820Z,14.13
2018-05-31T21:40:12.491Z,16.20
2018-05-31T21:42:40.271Z,13.90
2018-05-31T21:45:08.098Z,14.60
2018-05-31T21:47:35.757Z,15.13
2018-05-31T21:50:03.454Z,13.73
2018-05-31T21:52:32.228Z,13.87
2018-05-31T21:54:59.919Z,14.03
2018-05-31T21:57:28.524Z,12.07
2018-05-31T21:59:56.064Z,11.83
2018-05-31T22:02:23.617Z,13.40
2018-05-31T22:04:51.248Z,12.80
2018-05-31T22:07:19.287Z,12.53
2018-05-31T22:09:47.029Z,13.40
2018-05-31T22:12:15.489Z,15.10
2018-05-31T22:14:43.131Z,14.03
2018-05-31T22:17:11.610Z,14.87
2018-05-31T22:19:40.997Z,13.97
2018-05-31T22:22:08.580Z,14.27
2018-05-31T22:24:37.420Z,14.93
2018-05-31T22:27:05.226Z,15.03
2018-05-31T22:29:34.460Z,15.60
2018-05-31T22:32:02.138Z,14.83
2018-05-31T22:34:29.785Z,14.37
2018-05-31T22:36:57.445Z,14.70
2018-05-31T22:39:25.089Z,14.90
2018-05-31T22:41:52.798Z,15.27
2018-05-31T22:44:20.509Z,12.60
2018-05-31T22:46:48.158Z,13.47
2018-05-31T22:49:16.033Z,15.27
2018-05-31T22:51:45.388Z,13.73
2018-05-31T22:54:13.126Z,14.23
2018-05-31T22:59:33.213Z,15.17
2018-05-31T23:02:01.010Z,15.33
2018-05-31T23:04:28.952Z,15.13
2018-05-31T23:06:56.849Z,14.33
2018-05-31T23:09:25.671Z,14.90
2018-05-31T23:11:53.368Z,15.13
2018-05-31T23:14:24.008Z,15.10
2018-05-31T23:16:51.727Z,14.57
2018-05-31T23:19:19.400Z,14.80
2018-05-31T23:21:47.041Z,15.17
2018-05-31T23:24:16.197Z,14.83
2018-05-31T23:26:43.855Z,16.03
2018-05-31T23:29:14.744Z,14.53
2018-05-31T23:31:43.807Z,14.50
2018-05-31T23:34:11.478Z,14.60
2018-05-31T23:36:39.159Z,15.03
2018-05-31T23:39:07.780Z,14.77
2018-05-31T23:41:46.183Z,15.00
2018-05-31T23:44:15.481Z,15.23
2018-05-31T23:46:43.832Z,13.87
2018-05-31T23:49:11.911Z,13.87
2018-05-31T23:51:41.399Z,14.20
2018-05-31T23:54:09.991Z,14.70
2018-05-31T23:56:37.729Z,13.60
2018-05-31T23:59:06.772Z,15.53
